createdAt,value
2019-04-23T00:02:16.946Z,70.60
2019-04-23T00:04:45.197Z,70.20
2019-04-23T00:07:27.543Z,70.90
2019-04-23T00:09:47.124Z,70.70
2019-04-23T00:12:27.833Z,71.00
2019-04-23T00:15:04.510Z,71.60
2019-04-23T00:17:21.394Z,72.00
2019-04-23T00:19:56.070Z,71.80
2019-04-23T00:22:50.086Z,72.20
2019-04-23T00:28:16.508Z,73.60
2019-04-23T00:30:44.286Z,73.80
2019-04-23T00:33:15.434Z,74.10
2019-04-23T00:35:41.737Z,74.80
2019-04-23T00:38:19.718Z,74.80
2019-04-23T00:40:45.369Z,75.60
2019-04-23T00:43:16.674Z,75.30
2019-04-23T00:45:44.574Z,75.90
2019-04-23T00:48:22.317Z,76.40
2019-04-23T00:50:49.212Z,76.40
2019-04-23T00:56:09.736Z,76.00
2019-04-23T01:00:55.721Z,76.50
2019-04-23T01:03:24.047Z,77.10
2019-04-23T01:05:52.673Z,77.60
2019-04-23T01:08:24.950Z,78.60
2019-04-23T01:11:01.847Z,78.80
2019-04-23T01:13:39.346Z,78.90
2019-04-23T01:21:03.476Z,79.10
2019-04-23T01:23:57.821Z,79.10
2019-04-23T01:26:41.899Z,79.60
2019-04-23T01:29:24.307Z,79.50
2019-04-23T01:31:53.281Z,79.70
2019-04-23T01:34:26.033Z,79.70
2019-04-23T01:36:54.172Z,80.10
2019-04-23T01:39:23.198Z,80.20
2019-04-23T01:41:58.405Z,80.50
2019-04-23T01:44:33.404Z,80.80
2019-04-23T01:46:57.074Z,80.70
2019-04-23T01:49:45.051Z,80.90
2019-04-23T01:52:00.366Z,81.00
2019-04-23T01:54:30.332Z,81.50
2019-04-23T01:57:01.294Z,81.10
2019-04-23T01:59:31.344Z,81.00
2019-04-23T02:02:05.239Z,81.60
2019-04-23T02:04:36.619Z,82.00
2019-04-23T02:07:06.467Z,82.20
2019-04-23T02:09:41.954Z,82.40
2019-04-23T02:12:11.629Z,83.50
2019-04-23T02:14:48.150Z,84.50
2019-04-23T02:17:13.603Z,84.50
2019-04-23T02:19:46.148Z,84.50
2019-04-23T02:22:38.851Z,83.50
2019-04-23T02:25:24.850Z,83.90
2019-04-23T02:27:53.695Z,84.60
2019-04-23T02:30:40.115Z,84.80
2019-04-23T02:35:46.840Z,83.80
2019-04-23T02:40:44.684Z,84.20
2019-04-23T02:43:06.905Z,84.90
2019-04-23T02:45:45.801Z,86.00
2019-04-23T02:48:16.717Z,86.20
2019-04-23T02:50:40.516Z,86.60
2019-04-23T02:53:31.826Z,86.30
2019-04-23T02:58:10.515Z,86.40
2019-04-23T03:03:19.818Z,86.00
2019-04-23T03:05:45.427Z,86.00
2019-04-23T03:08:20.297Z,86.30
2019-04-23T03:10:57.131Z,86.20
2019-04-23T03:13:32.139Z,86.30
2019-04-23T03:24:36.497Z,86.40
2019-04-23T03:27:19.354Z,87.10
2019-04-23T03:29:54.983Z,87.10
2019-04-23T03:37:30.863Z,89.00
2019-04-23T03:39:58.015Z,88.30
2019-04-23T03:42:18.164Z,88.10
2019-04-23T03:44:47.851Z,87.60
2019-04-23T03:47:18.590Z,87.30
2019-04-23T03:50:04.936Z,88.20
2019-04-23T03:52:35.470Z,88.90
2019-04-23T03:54:46.219Z,88.70
2019-04-23T03:57:32.106Z,88.80
2019-04-23T03:59:55.027Z,89.20
2019-04-23T04:04:44.750Z,89.30
2019-04-23T04:07:40.272Z,89.00
2019-04-23T04:09:51.764Z,89.30
2019-04-23T04:12:29.301Z,90.10
2019-04-23T04:17:26.771Z,91.00
2019-04-23T04:22:38.076Z,91.70
2019-04-23T04:30:22.269Z,91.70
2019-04-23T04:32:36.701Z,91.80
2019-04-23T04:35:18.669Z,92.00
2019-04-23T04:40:21.340Z,91.80
2019-04-23T04:45:12.234Z,92.20
2019-04-23T04:47:42.352Z,92.10
2019-04-23T04:50:04.744Z,92.40
2019-04-23T04:52:48.827Z,92.90
2019-04-23T04:55:19.453Z,93.20
2019-04-23T05:03:02.824Z,92.60
2019-04-23T05:10:25.215Z,92.70
2019-04-23T05:12:51.257Z,92.80
2019-04-23T05:15:16.545Z,92.80
2019-04-23T05:18:23.655Z,93.70
2019-04-23T05:23:21.083Z,93.70
2019-04-23T05:25:45.062Z,93.80
2019-04-23T05:30:51.774Z,93.80
2019-04-23T05:41:01.601Z,94.10
2019-04-23T05:43:30.807Z,93.90
2019-04-23T05:45:57.396Z,92.90
2019-04-23T05:48:26.095Z,94.00
2019-04-23T05:53:29.066Z,93.80
2019-04-23T05:56:01.814Z,92.90
2019-04-23T05:58:39.868Z,94.10
2019-04-23T06:01:32.475Z,94.30
2019-04-23T06:03:58.149Z,93.70
2019-04-23T06:06:36.192Z,94.40
2019-04-23T06:08:55.154Z,94.70
2019-04-23T06:11:30.764Z,94.60
2019-04-23T06:14:06.539Z,94.00
2019-04-23T06:16:34.061Z,94.10
2019-04-23T06:19:02.747Z,94.50
2019-04-23T06:21:33.935Z,94.30
2019-04-23T06:26:52.757Z,94.50
2019-04-23T06:29:10.242Z,95.30
2019-04-23T06:31:41.078Z,94.00
2019-04-23T06:34:12.434Z,93.90
2019-04-23T06:36:40.159Z,95.10
2019-04-23T06:39:10.315Z,94.60
2019-04-23T06:41:37.583Z,94.30
2019-04-23T06:49:24.681Z,95.30
2019-04-23T06:52:06.742Z,94.70
2019-04-23T06:54:25.589Z,95.40
2019-04-23T06:59:24.710Z,94.40
2019-04-23T07:04:55.371Z,94.40
2019-04-23T07:07:24.099Z,93.70
2019-04-23T07:09:22.682Z,93.50
2019-04-23T07:12:05.370Z,95.00
2019-04-23T07:14:40.836Z,92.70
2019-04-23T07:17:02.651Z,92.60
2019-04-23T07:19:37.128Z,93.00
2019-04-23T07:22:14.839Z,93.50
2019-04-23T07:24:42.094Z,92.40
2019-04-23T07:27:12.029Z,93.00
2019-04-23T07:29:38.972Z,92.80
2019-04-23T07:32:10.957Z,92.60
2019-04-23T07:34:49.783Z,92.20
2019-04-23T07:37:15.444Z,92.60
2019-04-23T07:40:11.037Z,92.70
2019-04-23T07:42:37.150Z,93.70
2019-04-23T07:45:35.343Z,92.20
2019-04-23T07:48:15.244Z,91.80
2019-04-23T07:53:23.090Z,92.10
2019-04-23T07:55:57.137Z,93.00
2019-04-23T08:01:03.620Z,91.90
2019-04-23T08:03:20.992Z,91.80
2019-04-23T08:05:54.427Z,91.80
2019-04-23T08:08:36.457Z,91.50
2019-04-23T08:16:19.941Z,93.10
2019-04-23T08:18:45.249Z,92.10
2019-04-23T08:21:16.452Z,91.10
2019-04-23T08:24:01.600Z,91.40
2019-04-23T08:27:02.752Z,91.00
2019-04-23T08:29:19.930Z,91.90
2019-04-23T08:32:03.994Z,91.00
2019-04-23T08:34:48.356Z,90.60
2019-04-23T08:37:04.629Z,92.90
2019-04-23T08:39:33.959Z,91.60
2019-04-23T08:42:21.665Z,91.80
2019-04-23T08:45:09.213Z,90.80
2019-04-23T08:48:04.077Z,90.60
2019-04-23T08:50:27.480Z,90.80
2019-04-23T08:52:40.185Z,91.50
2019-04-23T08:55:16.913Z,92.10
2019-04-23T08:57:39.786Z,92.50
2019-04-23T09:00:17.676Z,91.30
2019-04-23T09:05:21.171Z,91.60
2019-04-23T09:07:54.124Z,91.00
2019-04-23T09:10:20.841Z,91.80
2019-04-23T09:12:58.745Z,91.40
2019-04-23T09:15:26.450Z,92.60
2019-04-23T09:18:01.416Z,92.30
2019-04-23T09:22:50.301Z,92.60
2019-04-23T09:28:19.301Z,92.00
2019-04-23T09:30:28.599Z,90.80
2019-04-23T09:33:13.916Z,91.00
2019-04-23T09:35:59.295Z,91.10
2019-04-23T09:38:34.531Z,91.20
2019-04-23T09:41:28.049Z,92.10
2019-04-23T09:44:39.177Z,90.70
2019-04-23T09:46:53.315Z,90.20
2019-04-23T09:52:00.761Z,90.90
2019-04-23T09:54:33.906Z,90.40
2019-04-23T09:56:52.593Z,91.30
2019-04-23T09:59:33.864Z,90.50
2019-04-23T10:01:52.877Z,90.00
2019-04-23T10:04:17.518Z,90.80
2019-04-23T10:06:36.224Z,90.20
2019-04-23T10:09:06.634Z,90.80
2019-04-23T10:11:34.628Z,89.90
2019-04-23T10:14:04.216Z,91.90
2019-04-23T10:16:34.360Z,90.80
2019-04-23T10:19:03.918Z,92.20
2019-04-23T10:21:33.439Z,91.60
2019-04-23T10:24:03.347Z,91.30
2019-04-23T10:26:34.227Z,91.20
2019-04-23T10:29:11.842Z,92.40
2019-04-23T10:31:42.145Z,91.30
2019-04-23T10:34:12.245Z,91.00
2019-04-23T10:36:42.317Z,90.10
2019-04-23T10:39:19.582Z,91.70
2019-04-23T10:41:46.355Z,90.60
2019-04-23T10:44:31.196Z,90.80
2019-04-23T10:47:45.246Z,90.70
2019-04-23T10:50:44.460Z,91.10
2019-04-23T10:53:09.249Z,91.60
2019-04-23T10:55:42.216Z,90.60
2019-04-23T10:58:12.621Z,90.50
2019-04-23T11:00:36.176Z,91.30
2019-04-23T11:03:25.400Z,90.00
2019-04-23T11:08:11.168Z,90.70
2019-04-23T11:10:44.281Z,91.30
2019-04-23T11:13:25.727Z,90.20
2019-04-23T11:16:11.017Z,89.10
2019-04-23T11:18:34.170Z,88.70
2019-04-23T11:20:52.153Z,88.00
2019-04-23T11:23:27.345Z,84.40
2019-04-23T11:26:01.337Z,89.60
2019-04-23T11:28:25.988Z,85.30
2019-04-23T11:30:55.660Z,85.70
2019-04-23T11:33:37.895Z,83.80
2019-04-23T11:36:33.296Z,87.30
2019-04-23T11:41:16.470Z,84.50
2019-04-23T11:46:21.578Z,88.00
2019-04-23T11:48:54.674Z,86.00
2019-04-23T11:56:33.058Z,86.50
2019-04-23T12:04:37.120Z,84.40
2019-04-23T12:07:22.912Z,86.10
2019-04-23T12:10:07.297Z,84.80
2019-04-23T12:12:39.536Z,86.90
2019-04-23T12:15:26.689Z,84.70
2019-04-23T12:17:43.878Z,84.10
2019-04-23T12:20:16.196Z,85.10
2019-04-23T12:22:51.251Z,85.90
2019-04-23T12:25:31.235Z,85.30
2019-04-23T12:27:59.252Z,84.80
2019-04-23T12:30:25.329Z,84.00
2019-04-23T12:32:59.448Z,85.70
2019-04-23T12:38:14.155Z,86.50
2019-04-23T12:40:37.927Z,85.20
2019-04-23T12:43:17.242Z,86.40
2019-04-23T12:45:44.254Z,83.60
2019-04-23T12:48:27.877Z,80.80
2019-04-23T12:53:27.313Z,82.60
2019-04-23T12:58:26.737Z,84.70
2019-04-23T13:00:46.235Z,84.20
2019-04-23T13:03:28.347Z,84.30
2019-04-23T13:05:46.792Z,83.50
2019-04-23T13:08:33.639Z,82.30
2019-04-23T13:11:00.450Z,83.30
2019-04-23T13:13:35.186Z,84.30
2019-04-23T13:16:02.831Z,85.90
2019-04-23T13:18:34.742Z,84.30
2019-04-23T13:21:14.232Z,84.80
2019-04-23T13:23:34.883Z,83.40
2019-04-23T13:26:17.797Z,82.50
2019-04-23T13:28:38.773Z,82.00
2019-04-23T13:31:12.166Z,82.90
2019-04-23T13:43:53.023Z,83.90
2019-04-23T13:46:17.276Z,87.60
2019-04-23T13:48:46.966Z,86.20
2019-04-23T13:53:53.583Z,85.90
2019-04-23T14:01:28.976Z,83.90
2019-04-23T14:04:06.252Z,85.00
2019-04-23T14:06:36.710Z,85.10
2019-04-23T14:09:14.454Z,84.50
2019-04-23T14:11:46.627Z,84.60
2019-04-23T14:14:18.826Z,86.00
2019-04-23T14:19:06.751Z,85.30
2019-04-23T14:21:47.864Z,83.00
2019-04-23T14:24:31.716Z,84.80
2019-04-23T14:26:50.528Z,83.60
2019-04-23T14:29:34.521Z,85.00
2019-04-23T14:32:10.852Z,84.30
2019-04-23T14:34:40.478Z,83.60
2019-04-23T14:37:11.861Z,84.10
2019-04-23T14:39:43.726Z,84.40
2019-04-23T14:42:21.442Z,83.20
2019-04-23T14:44:47.168Z,83.20
2019-04-23T14:47:25.792Z,84.00
2019-04-23T14:50:22.884Z,84.90
2019-04-23T14:52:31.040Z,85.10
2019-04-23T14:57:42.513Z,82.80
2019-04-23T15:00:07.294Z,86.30
2019-04-23T15:05:13.760Z,84.90
2019-04-23T15:10:18.425Z,87.20
2019-04-23T15:12:45.662Z,85.20
2019-04-23T15:15:18.465Z,86.10
2019-04-23T15:17:51.953Z,86.20
2019-04-23T15:20:23.103Z,82.50
2019-04-23T15:23:10.825Z,84.00
2019-04-23T15:30:14.107Z,86.80
2019-04-23T15:35:29.492Z,85.50
2019-04-23T15:43:07.328Z,83.50
2019-04-23T15:45:28.564Z,85.40
2019-04-23T15:48:03.327Z,84.70
2019-04-23T15:53:01.327Z,86.00
2019-04-23T15:55:33.792Z,86.00
2019-04-23T15:58:16.985Z,88.30
2019-04-23T16:00:36.642Z,84.50
2019-04-23T16:02:42.158Z,86.90
2019-04-23T16:05:12.406Z,86.30
2019-04-23T16:08:04.630Z,83.90
2019-04-23T16:10:47.593Z,83.90
2019-04-23T16:13:20.007Z,83.80
2019-04-23T16:15:54.350Z,83.70
2019-04-23T16:18:37.098Z,84.00
2019-04-23T16:21:12.545Z,86.90
2019-04-23T16:23:37.882Z,87.60
2019-04-23T16:26:12.499Z,87.10
2019-04-23T16:29:00.248Z,87.20
2019-04-23T16:31:15.083Z,88.00
2019-04-23T16:33:54.267Z,87.30
2019-04-23T16:36:24.623Z,88.30
2019-04-23T16:38:52.000Z,89.00
2019-04-23T16:41:25.962Z,88.10
2019-04-23T16:44:14.272Z,89.00
2019-04-23T16:46:25.251Z,88.10
2019-04-23T16:49:11.614Z,87.10
2019-04-23T16:51:27.761Z,89.20
2019-04-23T16:54:01.806Z,88.00
2019-04-23T16:56:42.757Z,89.20
2019-04-23T16:59:08.747Z,90.20
2019-04-23T17:01:28.011Z,89.50
2019-04-23T17:04:13.778Z,89.70
2019-04-23T17:11:34.309Z,90.20
2019-04-23T17:21:40.163Z,90.70
2019-04-23T17:24:18.960Z,90.90
2019-04-23T17:26:51.401Z,91.00
2019-04-23T17:32:00.526Z,91.80
2019-04-23T17:34:38.564Z,92.40
2019-04-23T17:37:05.271Z,92.10
2019-04-23T17:42:50.917Z,92.00
2019-04-23T17:56:11.888Z,92.50
2019-04-23T18:01:17.605Z,92.30
2019-04-23T18:03:41.398Z,92.50
2019-04-23T18:06:15.741Z,92.90
2019-04-23T18:08:33.202Z,93.20
2019-04-23T18:11:13.002Z,93.10
2019-04-23T18:13:43.322Z,92.70
2019-04-23T18:16:21.258Z,92.50
2019-04-23T18:18:45.021Z,92.30
2019-04-23T18:21:35.751Z,92.40
2019-04-23T18:24:22.765Z,92.40
2019-04-23T18:29:53.630Z,93.30
2019-04-23T18:32:42.957Z,93.30
2019-04-23T18:35:19.479Z,93.20
2019-04-23T18:40:03.653Z,93.90
2019-04-23T18:42:45.895Z,94.50
2019-04-23T18:45:18.096Z,94.70
2019-04-23T18:47:54.792Z,95.10
2019-04-23T18:50:22.673Z,95.70
2019-04-23T18:52:55.885Z,95.80
2019-04-23T18:55:29.276Z,95.50
2019-04-23T18:57:55.296Z,95.20
2019-04-23T19:00:24.913Z,95.50
2019-04-23T19:03:20.726Z,95.40
2019-04-23T19:06:13.403Z,95.40
2019-04-23T19:11:46.114Z,94.40
2019-04-23T19:13:57.366Z,94.30
2019-04-23T19:16:41.647Z,94.20
2019-04-23T19:19:04.856Z,94.00
2019-04-23T19:21:59.155Z,93.80
2019-04-23T19:24:03.074Z,94.10
2019-04-23T19:29:11.648Z,94.60
2019-04-23T19:31:54.124Z,95.60
2019-04-23T19:36:59.540Z,94.60
2019-04-23T19:44:34.531Z,94.60
2019-04-23T19:47:06.909Z,94.90
2019-04-23T19:49:35.710Z,95.10
2019-04-23T19:51:59.635Z,95.20
2019-04-23T19:57:08.498Z,95.40
2019-04-23T20:02:15.215Z,95.10
2019-04-23T20:04:45.970Z,95.00
2019-04-23T20:09:51.989Z,96.30
2019-04-23T20:12:28.408Z,96.60
2019-04-23T20:14:50.509Z,97.40
2019-04-23T20:22:25.586Z,98.90
2019-04-23T20:25:03.939Z,99.00
2019-04-23T20:35:13.064Z,99.90
2019-04-23T20:40:25.707Z,99.90
2019-04-23T20:45:23.065Z,99.90
2019-04-23T20:47:57.474Z,99.90
2019-04-23T20:50:32.737Z,99.90
2019-04-23T20:52:51.454Z,99.90
2019-04-23T20:55:43.580Z,99.90
2019-04-23T20:58:14.970Z,99.90
2019-04-23T21:01:09.283Z,99.90
2019-04-23T21:03:46.267Z,99.90
2019-04-23T21:06:06.952Z,99.90
2019-04-23T21:08:52.334Z,99.90
2019-04-23T21:10:58.409Z,99.90
2019-04-23T21:16:05.046Z,99.90
2019-04-23T21:21:09.415Z,99.90
2019-04-23T21:23:45.456Z,99.90
2019-04-23T21:26:02.409Z,99.90
2019-04-23T21:31:28.493Z,99.90
2019-04-23T21:34:00.622Z,99.90
2019-04-23T21:39:38.591Z,99.90
2019-04-23T21:44:46.829Z,99.90
2019-04-23T21:47:15.319Z,99.90
2019-04-23T21:52:20.797Z,99.90
2019-04-23T21:54:53.454Z,99.90
2019-04-23T21:57:24.752Z,99.90
2019-04-23T21:59:55.684Z,99.90
2019-04-23T22:02:32.462Z,99.90
2019-04-23T22:07:40.157Z,99.90
2019-04-23T22:10:02.908Z,99.90
2019-04-23T22:12:40.768Z,99.90
2019-04-23T22:14:57.737Z,99.90
2019-04-23T22:17:33.130Z,99.90
2019-04-23T22:22:45.486Z,99.90
2019-04-23T22:25:11.454Z,99.90
2019-04-23T22:27:44.302Z,99.90
2019-04-23T22:30:04.094Z,99.90
2019-04-23T22:32:47.640Z,99.80
2019-04-23T22:35:07.210Z,99.90
2019-04-23T22:37:42.412Z,99.90
2019-04-23T22:40:10.134Z,99.90
2019-04-23T22:43:01.289Z,99.80
2019-04-23T22:47:56.401Z,99.90
2019-04-23T22:50:19.075Z,99.90
2019-04-23T22:52:53.690Z,99.90
2019-04-23T22:55:23.119Z,99.90
2019-04-23T23:00:34.997Z,99.90
2019-04-23T23:06:12.615Z,99.90
2019-04-23T23:08:34.514Z,99.90
2019-04-23T23:13:46.534Z,99.90
2019-04-23T23:16:10.531Z,99.90
2019-04-23T23:18:33.566Z,99.90
2019-04-23T23:21:07.941Z,99.90
2019-04-23T23:23:40.855Z,99.90
2019-04-23T23:26:11.342Z,99.90
2019-04-23T23:28:41.104Z,99.90
2019-04-23T23:31:11.333Z,99.90
2019-04-23T23:33:50.721Z,99.90
2019-04-23T23:38:58.651Z,99.90
2019-04-23T23:41:22.950Z,99.90
2019-04-23T23:43:54.485Z,99.90
2019-04-23T23:48:54.878Z,99.90
2019-04-23T23:51:25.699Z,99.90
2019-04-23T23:54:00.401Z,99.90
2019-04-23T23:56:19.372Z,99.90
2019-04-23T23:59:06.843Z,99.90
